EGKK/LGW METAR and TAF weather

Enter ICAO airport designator
Station Type Date Time Source
EGKK METAR 2019/08/21 22:50 UTC NOAA

EGKK 212250Z 20004KT CAVOK 13/11 Q1026


Station Type Date Time Source
EGKK Decoded METAR 2019/08/21 22:50 UTC NOAA

Station name not available
Aug 21, 2019 - 06:50 PM EDT / 2019.08.21 2250 UTC
Wind: from the SSW (200 degrees) at 5 MPH (4 KT):0
Visibility: greater than 7 mile(s):0
Temperature: 55 F (13 C)
Dew Point: 51 F (11 C)
Relative Humidity: 87%
Pressure (altimeter): 30.30 in. Hg (1026 hPa)
ob: EGKK 212250Z 20004KT CAVOK 13/11 Q1026
cycle: 23

Station Type Date Time Source
EGKK TAF 2019/08/21 18:10 UTC NOAA

TAF EGKK 211704Z 2118/2224 20007KT 9999 FEW045
TEMPO 2200/2207 8000 PROB40 2202/2207 3000 BR

Example: see airport list